sensor_id;sensor_type;location;lat;lon;timestamp;P1;durP1;ratioP1;P2;durP2;ratioP2
27804;SDS011;15183;51.350;11.102;2022-07-29T00:00:58;3.35;;;0.75;;
27804;SDS011;15183;51.350;11.102;2022-07-29T00:03:25;1.70;;;0.63;;
27804;SDS011;15183;51.350;11.102;2022-07-29T00:05:51;3.08;;;1.00;;
27804;SDS011;15183;51.350;11.102;2022-07-29T00:08:18;3.10;;;0.77;;
27804;SDS011;15183;51.350;11.102;2022-07-29T00:10:45;1.73;;;0.68;;
27804;SDS011;15183;51.350;11.102;2022-07-29T00:13:11;6.85;;;0.70;;
27804;SDS011;15183;51.350;11.102;2022-07-29T00:15:37;5.97;;;1.00;;
27804;SDS011;15183;51.350;11.102;2022-07-29T00:18:04;4.95;;;0.80;;
27804;SDS011;15183;51.350;11.102;2022-07-29T00:20:30;2.55;;;0.88;;
27804;SDS011;15183;51.350;11.102;2022-07-29T00:22:57;1.25;;;0.70;;
27804;SDS011;15183;51.350;11.102;2022-07-29T00:25:23;1.58;;;0.65;;
27804;SDS011;15183;51.350;11.102;2022-07-29T00:27:49;1.75;;;0.65;;
27804;SDS011;15183;51.350;11.102;2022-07-29T00:30:16;5.20;;;0.82;;
27804;SDS011;15183;51.350;11.102;2022-07-29T00:32:42;2.58;;;0.88;;
27804;SDS011;15183;51.350;11.102;2022-07-29T00:35:08;1.20;;;0.73;;
27804;SDS011;15183;51.350;11.102;2022-07-29T00:40:57;1.67;;;0.80;;
27804;SDS011;15183;51.350;11.102;2022-07-29T00:43:23;2.58;;;0.88;;
27804;SDS011;15183;51.350;11.102;2022-07-29T00:45:50;5.53;;;0.82;;
27804;SDS011;15183;51.350;11.102;2022-07-29T00:48:16;3.85;;;1.00;;
27804;SDS011;15183;51.350;11.102;2022-07-29T00:50:43;2.28;;;0.90;;
27804;SDS011;15183;51.350;11.102;2022-07-29T00:53:09;3.25;;;0.63;;
27804;SDS011;15183;51.350;11.102;2022-07-29T00:55:37;2.80;;;0.63;;
27804;SDS011;15183;51.350;11.102;2022-07-29T00:58:03;2.13;;;0.93;;
27804;SDS011;15183;51.350;11.102;2022-07-29T01:00:30;2.22;;;0.80;;
27804;SDS011;15183;51.350;11.102;2022-07-29T01:02:57;4.25;;;0.80;;
27804;SDS011;15183;51.350;11.102;2022-07-29T01:05:24;4.95;;;0.90;;
27804;SDS011;15183;51.350;11.102;2022-07-29T01:07:52;3.50;;;0.90;;
27804;SDS011;15183;51.350;11.102;2022-07-29T01:10:19;1.15;;;0.55;;
27804;SDS011;15183;51.350;11.102;2022-07-29T01:12:47;2.83;;;0.75;;
27804;SDS011;15183;51.350;11.102;2022-07-29T01:15:14;1.05;;;0.63;;
27804;SDS011;15183;51.350;11.102;2022-07-29T01:20:27;3.78;;;0.63;;
27804;SDS011;15183;51.350;11.102;2022-07-29T01:26:04;1.13;;;0.60;;
27804;SDS011;15183;51.350;11.102;2022-07-29T01:31:20;3.65;;;0.70;;
27804;SDS011;15183;51.350;11.102;2022-07-29T01:33:50;1.70;;;0.85;;
27804;SDS011;15183;51.350;11.102;2022-07-29T01:36:28;2.75;;;0.60;;
27804;SDS011;15183;51.350;11.102;2022-07-29T01:38:58;6.10;;;0.90;;
27804;SDS011;15183;51.350;11.102;2022-07-29T01:41:27;1.77;;;0.70;;
27804;SDS011;15183;51.350;11.102;2022-07-29T01:43:57;0.90;;;0.63;;
27804;SDS011;15183;51.350;11.102;2022-07-29T01:46:31;2.15;;;1.10;;
27804;SDS011;15183;51.350;11.102;2022-07-29T01:49:20;2.42;;;0.90;;
27804;SDS011;15183;51.350;11.102;2022-07-29T01:51:49;3.05;;;0.80;;
27804;SDS011;15183;51.350;11.102;2022-07-29T01:56:42;3.00;;;0.70;;
27804;SDS011;15183;51.350;11.102;2022-07-29T01:59:09;2.35;;;0.65;;
27804;SDS011;15183;51.350;11.102;2022-07-29T02:01:36;1.50;;;0.50;;
27804;SDS011;15183;51.350;11.102;2022-07-29T02:04:03;2.85;;;0.70;;
27804;SDS011;15183;51.350;11.102;2022-07-29T02:06:32;0.50;;;0.50;;
27804;SDS011;15183;51.350;11.102;2022-07-29T02:08:59;2.40;;;0.77;;
27804;SDS011;15183;51.350;11.102;2022-07-29T02:11:27;1.00;;;0.60;;
27804;SDS011;15183;51.350;11.102;2022-07-29T02:13:54;1.55;;;0.57;;
27804;SDS011;15183;51.350;11.102;2022-07-29T02:16:22;1.55;;;0.70;;
27804;SDS011;15183;51.350;11.102;2022-07-29T02:18:49;1.20;;;0.50;;
27804;SDS011;15183;51.350;11.102;2022-07-29T02:21:18;2.83;;;0.80;;
27804;SDS011;15183;51.350;11.102;2022-07-29T02:23:45;4.53;;;0.47;;
27804;SDS011;15183;51.350;11.102;2022-07-29T02:26:12;4.47;;;0.65;;
27804;SDS011;15183;51.350;11.102;2022-07-29T02:28:38;1.33;;;0.70;;
27804;SDS011;15183;51.350;11.102;2022-07-29T02:31:05;1.25;;;0.70;;
27804;SDS011;15183;51.350;11.102;2022-07-29T02:33:32;0.50;;;0.50;;
27804;SDS011;15183;51.350;11.102;2022-07-29T02:35:58;1.65;;;0.57;;
27804;SDS011;15183;51.350;11.102;2022-07-29T02:38:25;1.52;;;0.60;;
27804;SDS011;15183;51.350;11.102;2022-07-29T02:43:38;5.47;;;0.77;;
27804;SDS011;15183;51.350;11.102;2022-07-29T02:46:05;2.58;;;0.88;;
27804;SDS011;15183;51.350;11.102;2022-07-29T02:48:37;0.73;;;0.60;;
27804;SDS011;15183;51.350;11.102;2022-07-29T02:51:05;1.63;;;0.50;;
27804;SDS011;15183;51.350;11.102;2022-07-29T02:53:33;1.20;;;0.60;;
27804;SDS011;15183;51.350;11.102;2022-07-29T02:56:01;2.42;;;0.60;;
27804;SDS011;15183;51.350;11.102;2022-07-29T02:58:30;3.05;;;0.80;;
27804;SDS011;15183;51.350;11.102;2022-07-29T03:00:59;1.05;;;0.70;;
27804;SDS011;15183;51.350;11.102;2022-07-29T03:03:28;1.30;;;0.60;;
27804;SDS011;15183;51.350;11.102;2022-07-29T03:05:55;3.55;;;0.88;;
27804;SDS011;15183;51.350;11.102;2022-07-29T03:08:22;2.00;;;0.70;;
27804;SDS011;15183;51.350;11.102;2022-07-29T03:10:49;2.30;;;0.70;;
27804;SDS011;15183;51.350;11.102;2022-07-29T03:13:16;2.20;;;0.70;;
27804;SDS011;15183;51.350;11.102;2022-07-29T03:15:43;1.75;;;0.50;;
27804;SDS011;15183;51.350;11.102;2022-07-29T03:18:10;4.55;;;0.70;;
27804;SDS011;15183;51.350;11.102;2022-07-29T03:20:37;2.00;;;0.70;;
27804;SDS011;15183;51.350;11.102;2022-07-29T03:23:04;1.13;;;0.60;;
27804;SDS011;15183;51.350;11.102;2022-07-29T03:25:30;1.67;;;0.73;;
27804;SDS011;15183;51.350;11.102;2022-07-29T03:27:57;2.40;;;0.60;;
27804;SDS011;15183;51.350;11.102;2022-07-29T03:30:23;1.23;;;0.60;;
27804;SDS011;15183;51.350;11.102;2022-07-29T03:32:50;6.93;;;0.60;;
27804;SDS011;15183;51.350;11.102;2022-07-29T03:35:16;4.13;;;0.65;;
27804;SDS011;15183;51.350;11.102;2022-07-29T03:37:43;1.08;;;0.68;;
27804;SDS011;15183;51.350;11.102;2022-07-29T03:40:10;3.30;;;0.85;;
27804;SDS011;15183;51.350;11.102;2022-07-29T03:42:38;1.83;;;1.10;;
27804;SDS011;15183;51.350;11.102;2022-07-29T03:45:06;1.08;;;0.80;;
27804;SDS011;15183;51.350;11.102;2022-07-29T03:47:34;2.03;;;0.90;;
27804;SDS011;15183;51.350;11.102;2022-07-29T03:50:05;2.60;;;0.80;;
27804;SDS011;15183;51.350;11.102;2022-07-29T03:52:32;3.72;;;0.80;;
27804;SDS011;15183;51.350;11.102;2022-07-29T03:54:59;2.78;;;0.80;;
27804;SDS011;15183;51.350;11.102;2022-07-29T03:57:27;3.80;;;0.80;;
27804;SDS011;15183;51.350;11.102;2022-07-29T03:59:54;2.85;;;0.60;;
27804;SDS011;15183;51.350;11.102;2022-07-29T04:02:20;2.58;;;1.13;;
27804;SDS011;15183;51.350;11.102;2022-07-29T04:04:47;2.17;;;0.80;;
27804;SDS011;15183;51.350;11.102;2022-07-29T04:07:15;2.03;;;0.80;;
27804;SDS011;15183;51.350;11.102;2022-07-29T04:09:41;1.75;;;0.73;;
27804;SDS011;15183;51.350;11.102;2022-07-29T04:12:08;2.78;;;0.80;;
27804;SDS011;15183;51.350;11.102;2022-07-29T04:14:34;1.58;;;0.80;;
27804;SDS011;15183;51.350;11.102;2022-07-29T04:17:01;2.10;;;0.60;;
27804;SDS011;15183;51.350;11.102;2022-07-29T04:19:27;1.75;;;0.60;;
27804;SDS011;15183;51.350;11.102;2022-07-29T04:21:54;5.78;;;0.80;;
27804;SDS011;15183;51.350;11.102;2022-07-29T04:24:20;1.63;;;0.80;;
27804;SDS011;15183;51.350;11.102;2022-07-29T04:26:47;1.63;;;0.80;;
27804;SDS011;15183;51.350;11.102;2022-07-29T04:29:13;1.15;;;0.60;;
27804;SDS011;15183;51.350;11.102;2022-07-29T04:31:40;1.52;;;0.70;;
27804;SDS011;15183;51.350;11.102;2022-07-29T04:34:06;2.35;;;0.70;;
27804;SDS011;15183;51.350;11.102;2022-07-29T04:36:33;4.18;;;1.27;;
27804;SDS011;15183;51.350;11.102;2022-07-29T04:38:59;3.88;;;0.90;;
27804;SDS011;15183;51.350;11.102;2022-07-29T04:41:26;2.35;;;0.90;;
27804;SDS011;15183;51.350;11.102;2022-07-29T04:43:53;2.58;;;0.73;;
27804;SDS011;15183;51.350;11.102;2022-07-29T04:46:19;3.30;;;1.25;;
27804;SDS011;15183;51.350;11.102;2022-07-29T04:48:46;3.78;;;1.00;;
27804;SDS011;15183;51.350;11.102;2022-07-29T04:51:14;3.25;;;1.42;;
27804;SDS011;15183;51.350;11.102;2022-07-29T04:53:40;2.42;;;0.90;;
27804;SDS011;15183;51.350;11.102;2022-07-29T04:56:07;3.35;;;0.73;;
27804;SDS011;15183;51.350;11.102;2022-07-29T04:58:36;1.23;;;0.70;;
27804;SDS011;15183;51.350;11.102;2022-07-29T05:01:03;4.35;;;0.70;;
27804;SDS011;15183;51.350;11.102;2022-07-29T05:03:29;1.77;;;0.70;;
27804;SDS011;15183;51.350;11.102;2022-07-29T05:05:55;3.10;;;0.80;;
27804;SDS011;15183;51.350;11.102;2022-07-29T05:08:22;1.58;;;0.75;;
27804;SDS011;15183;51.350;11.102;2022-07-29T05:10:48;3.42;;;0.70;;
27804;SDS011;15183;51.350;11.102;2022-07-29T05:13:14;1.88;;;0.70;;
27804;SDS011;15183;51.350;11.102;2022-07-29T05:15:41;1.98;;;0.73;;
27804;SDS011;15183;51.350;11.102;2022-07-29T05:18:07;2.20;;;0.90;;
27804;SDS011;15183;51.350;11.102;2022-07-29T05:20:34;4.00;;;0.90;;
27804;SDS011;15183;51.350;11.102;2022-07-29T05:23:00;9.45;;;1.65;;
27804;SDS011;15183;51.350;11.102;2022-07-29T05:25:27;2.67;;;0.90;;
27804;SDS011;15183;51.350;11.102;2022-07-29T05:27:53;2.50;;;0.95;;
27804;SDS011;15183;51.350;11.102;2022-07-29T05:30:20;6.03;;;1.02;;
27804;SDS011;15183;51.350;11.102;2022-07-29T05:32:46;1.52;;;0.90;;
27804;SDS011;15183;51.350;11.102;2022-07-29T05:35:13;1.73;;;0.90;;
27804;SDS011;15183;51.350;11.102;2022-07-29T05:37:39;2.95;;;0.82;;
27804;SDS011;15183;51.350;11.102;2022-07-29T05:40:06;3.38;;;1.00;;
27804;SDS011;15183;51.350;11.102;2022-07-29T05:42:32;2.90;;;0.90;;
27804;SDS011;15183;51.350;11.102;2022-07-29T05:44:59;3.85;;;0.82;;
27804;SDS011;15183;51.350;11.102;2022-07-29T05:47:26;3.22;;;0.80;;
27804;SDS011;15183;51.350;11.102;2022-07-29T05:49:52;4.07;;;0.80;;
27804;SDS011;15183;51.350;11.102;2022-07-29T05:52:19;4.50;;;0.82;;
27804;SDS011;15183;51.350;11.102;2022-07-29T05:54:45;2.45;;;0.93;;
27804;SDS011;15183;51.350;11.102;2022-07-29T05:57:16;3.03;;;1.40;;
27804;SDS011;15183;51.350;11.102;2022-07-29T05:59:42;7.47;;;3.55;;
27804;SDS011;15183;51.350;11.102;2022-07-29T06:02:08;5.65;;;1.75;;
27804;SDS011;15183;51.350;11.102;2022-07-29T06:04:35;4.22;;;2.03;;
27804;SDS011;15183;51.350;11.102;2022-07-29T06:07:01;3.28;;;1.85;;
27804;SDS011;15183;51.350;11.102;2022-07-29T06:09:27;4.38;;;1.40;;
27804;SDS011;15183;51.350;11.102;2022-07-29T06:11:54;3.10;;;1.70;;
27804;SDS011;15183;51.350;11.102;2022-07-29T06:14:20;4.22;;;1.48;;
27804;SDS011;15183;51.350;11.102;2022-07-29T06:16:46;3.35;;;1.13;;
27804;SDS011;15183;51.350;11.102;2022-07-29T06:19:13;3.42;;;1.00;;
27804;SDS011;15183;51.350;11.102;2022-07-29T06:21:43;3.83;;;1.08;;
27804;SDS011;15183;51.350;11.102;2022-07-29T06:24:13;2.00;;;0.90;;
27804;SDS011;15183;51.350;11.102;2022-07-29T06:26:39;3.17;;;1.05;;
27804;SDS011;15183;51.350;11.102;2022-07-29T06:29:06;4.63;;;1.23;;
27804;SDS011;15183;51.350;11.102;2022-07-29T06:31:33;1.55;;;0.93;;
27804;SDS011;15183;51.350;11.102;2022-07-29T06:33:59;7.75;;;1.02;;
27804;SDS011;15183;51.350;11.102;2022-07-29T06:36:26;6.32;;;1.15;;
27804;SDS011;15183;51.350;11.102;2022-07-29T06:38:53;3.70;;;0.90;;
27804;SDS011;15183;51.350;11.102;2022-07-29T06:41:20;3.75;;;0.90;;
27804;SDS011;15183;51.350;11.102;2022-07-29T06:43:47;2.85;;;1.00;;
27804;SDS011;15183;51.350;11.102;2022-07-29T06:46:16;4.05;;;1.33;;
27804;SDS011;15183;51.350;11.102;2022-07-29T06:48:43;3.90;;;1.60;;
27804;SDS011;15183;51.350;11.102;2022-07-29T06:51:10;3.92;;;1.20;;
27804;SDS011;15183;51.350;11.102;2022-07-29T06:53:37;3.92;;;1.40;;
27804;SDS011;15183;51.350;11.102;2022-07-29T06:56:04;4.35;;;1.17;;
27804;SDS011;15183;51.350;11.102;2022-07-29T06:58:30;4.30;;;1.20;;
27804;SDS011;15183;51.350;11.102;2022-07-29T07:00:57;2.88;;;1.10;;
27804;SDS011;15183;51.350;11.102;2022-07-29T07:03:24;3.15;;;1.00;;
27804;SDS011;15183;51.350;11.102;2022-07-29T07:05:51;3.70;;;1.20;;
27804;SDS011;15183;51.350;11.102;2022-07-29T07:08:18;2.97;;;1.25;;
27804;SDS011;15183;51.350;11.102;2022-07-29T07:10:44;2.47;;;1.50;;
27804;SDS011;15183;51.350;11.102;2022-07-29T07:13:11;2.67;;;1.27;;
27804;SDS011;15183;51.350;11.102;2022-07-29T07:15:37;3.60;;;1.25;;
27804;SDS011;15183;51.350;11.102;2022-07-29T07:18:04;4.75;;;1.50;;
27804;SDS011;15183;51.350;11.102;2022-07-29T07:20:31;4.93;;;1.40;;
27804;SDS011;15183;51.350;11.102;2022-07-29T07:22:58;4.53;;;1.25;;
27804;SDS011;15183;51.350;11.102;2022-07-29T07:25:24;4.53;;;1.35;;
27804;SDS011;15183;51.350;11.102;2022-07-29T07:27:50;3.40;;;1.15;;
27804;SDS011;15183;51.350;11.102;2022-07-29T07:30:17;3.33;;;1.33;;
27804;SDS011;15183;51.350;11.102;2022-07-29T07:32:43;6.07;;;1.30;;
27804;SDS011;15183;51.350;11.102;2022-07-29T07:35:10;4.45;;;1.25;;
27804;SDS011;15183;51.350;11.102;2022-07-29T07:40:40;5.55;;;1.20;;
27804;SDS011;15183;51.350;11.102;2022-07-29T07:43:06;6.00;;;1.08;;
27804;SDS011;15183;51.350;11.102;2022-07-29T07:45:32;4.28;;;2.28;;
27804;SDS011;15183;51.350;11.102;2022-07-29T07:47:59;4.32;;;1.10;;
27804;SDS011;15183;51.350;11.102;2022-07-29T07:50:25;4.43;;;1.20;;
27804;SDS011;15183;51.350;11.102;2022-07-29T07:52:52;2.47;;;1.30;;
27804;SDS011;15183;51.350;11.102;2022-07-29T07:55:20;5.93;;;1.38;;
27804;SDS011;15183;51.350;11.102;2022-07-29T07:57:46;3.45;;;1.10;;
27804;SDS011;15183;51.350;11.102;2022-07-29T08:00:13;5.18;;;1.55;;
27804;SDS011;15183;51.350;11.102;2022-07-29T08:02:40;1.80;;;1.23;;
27804;SDS011;15183;51.350;11.102;2022-07-29T08:05:08;3.97;;;1.30;;
27804;SDS011;15183;51.350;11.102;2022-07-29T08:07:34;2.28;;;1.25;;
27804;SDS011;15183;51.350;11.102;2022-07-29T08:10:01;2.78;;;1.50;;
27804;SDS011;15183;51.350;11.102;2022-07-29T08:12:27;4.45;;;1.40;;
27804;SDS011;15183;51.350;11.102;2022-07-29T08:14:54;7.03;;;1.50;;
27804;SDS011;15183;51.350;11.102;2022-07-29T08:17:20;3.25;;;1.70;;
27804;SDS011;15183;51.350;11.102;2022-07-29T08:19:46;1.95;;;1.20;;
27804;SDS011;15183;51.350;11.102;2022-07-29T08:22:13;4.72;;;1.40;;
27804;SDS011;15183;51.350;11.102;2022-07-29T08:24:40;2.85;;;1.30;;
27804;SDS011;15183;51.350;11.102;2022-07-29T08:27:11;3.65;;;1.55;;
27804;SDS011;15183;51.350;11.102;2022-07-29T08:29:38;6.80;;;1.67;;
27804;SDS011;15183;51.350;11.102;2022-07-29T08:32:05;6.35;;;1.73;;
27804;SDS011;15183;51.350;11.102;2022-07-29T08:34:32;2.92;;;1.63;;
27804;SDS011;15183;51.350;11.102;2022-07-29T08:36:58;4.78;;;1.92;;
27804;SDS011;15183;51.350;11.102;2022-07-29T08:39:24;4.22;;;1.90;;
27804;SDS011;15183;51.350;11.102;2022-07-29T08:41:51;8.02;;;1.88;;
27804;SDS011;15183;51.350;11.102;2022-07-29T08:44:18;5.40;;;1.90;;
27804;SDS011;15183;51.350;11.102;2022-07-29T08:46:45;5.03;;;1.83;;
27804;SDS011;15183;51.350;11.102;2022-07-29T08:49:11;8.02;;;1.73;;
27804;SDS011;15183;51.350;11.102;2022-07-29T08:51:39;2.60;;;1.38;;
27804;SDS011;15183;51.350;11.102;2022-07-29T08:54:05;5.60;;;1.50;;
27804;SDS011;15183;51.350;11.102;2022-07-29T08:56:32;3.60;;;1.63;;
27804;SDS011;15183;51.350;11.102;2022-07-29T08:58:59;3.47;;;1.45;;
27804;SDS011;15183;51.350;11.102;2022-07-29T09:01:28;7.03;;;1.60;;
27804;SDS011;15183;51.350;11.102;2022-07-29T09:03:56;5.43;;;1.60;;
27804;SDS011;15183;51.350;11.102;2022-07-29T09:06:22;9.65;;;1.90;;
27804;SDS011;15183;51.350;11.102;2022-07-29T09:08:53;3.50;;;1.40;;
27804;SDS011;15183;51.350;11.102;2022-07-29T09:11:20;5.22;;;1.80;;
27804;SDS011;15183;51.350;11.102;2022-07-29T09:13:47;6.28;;;1.65;;
27804;SDS011;15183;51.350;11.102;2022-07-29T09:16:14;2.13;;;1.38;;
27804;SDS011;15183;51.350;11.102;2022-07-29T09:18:44;10.30;;;1.92;;
27804;SDS011;15183;51.350;11.102;2022-07-29T09:21:15;2.08;;;1.10;;
27804;SDS011;15183;51.350;11.102;2022-07-29T09:26:31;3.42;;;1.38;;
27804;SDS011;15183;51.350;11.102;2022-07-29T09:28:57;4.82;;;1.60;;
27804;SDS011;15183;51.350;11.102;2022-07-29T09:31:34;5.57;;;1.75;;
27804;SDS011;15183;51.350;11.102;2022-07-29T09:34:00;4.47;;;1.33;;
27804;SDS011;15183;51.350;11.102;2022-07-29T09:36:27;4.03;;;1.90;;
27804;SDS011;15183;51.350;11.102;2022-07-29T09:38:57;1.60;;;1.23;;
27804;SDS011;15183;51.350;11.102;2022-07-29T09:41:24;2.17;;;1.42;;
27804;SDS011;15183;51.350;11.102;2022-07-29T09:43:54;4.97;;;1.75;;
27804;SDS011;15183;51.350;11.102;2022-07-29T09:46:20;4.00;;;1.58;;
27804;SDS011;15183;51.350;11.102;2022-07-29T09:49:05;3.97;;;1.50;;
27804;SDS011;15183;51.350;11.102;2022-07-29T09:51:32;7.90;;;1.40;;
27804;SDS011;15183;51.350;11.102;2022-07-29T09:53:58;5.18;;;1.25;;
27804;SDS011;15183;51.350;11.102;2022-07-29T09:56:38;2.88;;;1.30;;
27804;SDS011;15183;51.350;11.102;2022-07-29T09:59:05;7.78;;;1.25;;
27804;SDS011;15183;51.350;11.102;2022-07-29T10:01:31;7.15;;;1.67;;
27804;SDS011;15183;51.350;11.102;2022-07-29T10:03:58;4.60;;;1.88;;
27804;SDS011;15183;51.350;11.102;2022-07-29T10:06:24;6.38;;;1.65;;
27804;SDS011;15183;51.350;11.102;2022-07-29T10:08:50;2.38;;;1.70;;
27804;SDS011;15183;51.350;11.102;2022-07-29T10:11:18;6.20;;;2.20;;
27804;SDS011;15183;51.350;11.102;2022-07-29T10:13:45;3.78;;;1.80;;
27804;SDS011;15183;51.350;11.102;2022-07-29T10:16:12;6.50;;;1.90;;
27804;SDS011;15183;51.350;11.102;2022-07-29T10:18:39;5.78;;;2.03;;
27804;SDS011;15183;51.350;11.102;2022-07-29T10:21:06;6.15;;;2.10;;
27804;SDS011;15183;51.350;11.102;2022-07-29T10:23:32;6.18;;;2.35;;
27804;SDS011;15183;51.350;11.102;2022-07-29T10:25:59;4.53;;;1.83;;
27804;SDS011;15183;51.350;11.102;2022-07-29T10:28:26;4.95;;;2.10;;
27804;SDS011;15183;51.350;11.102;2022-07-29T10:30:52;3.60;;;2.50;;
27804;SDS011;15183;51.350;11.102;2022-07-29T10:33:29;7.07;;;2.10;;
27804;SDS011;15183;51.350;11.102;2022-07-29T10:36:09;2.80;;;1.80;;
27804;SDS011;15183;51.350;11.102;2022-07-29T10:44:01;2.75;;;1.73;;
27804;SDS011;15183;51.350;11.102;2022-07-29T10:46:28;4.28;;;2.45;;
27804;SDS011;15183;51.350;11.102;2022-07-29T10:49:06;5.10;;;2.20;;
27804;SDS011;15183;51.350;11.102;2022-07-29T10:56:46;2.70;;;1.63;;
27804;SDS011;15183;51.350;11.102;2022-07-29T11:01:45;8.48;;;2.47;;
27804;SDS011;15183;51.350;11.102;2022-07-29T11:04:12;5.20;;;2.15;;
27804;SDS011;15183;51.350;11.102;2022-07-29T11:07:20;5.20;;;2.10;;
27804;SDS011;15183;51.350;11.102;2022-07-29T11:09:27;4.45;;;1.73;;
27804;SDS011;15183;51.350;11.102;2022-07-29T11:11:56;5.80;;;2.08;;
27804;SDS011;15183;51.350;11.102;2022-07-29T11:17:07;4.32;;;1.95;;
27804;SDS011;15183;51.350;11.102;2022-07-29T11:19:34;5.00;;;2.10;;
27804;SDS011;15183;51.350;11.102;2022-07-29T11:22:01;6.40;;;1.65;;
27804;SDS011;15183;51.350;11.102;2022-07-29T11:24:29;5.28;;;1.85;;
27804;SDS011;15183;51.350;11.102;2022-07-29T11:27:12;6.75;;;2.22;;
27804;SDS011;15183;51.350;11.102;2022-07-29T11:32:18;4.68;;;2.42;;
27804;SDS011;15183;51.350;11.102;2022-07-29T11:34:45;7.85;;;2.58;;
27804;SDS011;15183;51.350;11.102;2022-07-29T11:39:39;3.83;;;2.55;;
27804;SDS011;15183;51.350;11.102;2022-07-29T11:44:55;7.35;;;2.22;;
27804;SDS011;15183;51.350;11.102;2022-07-29T11:47:22;8.95;;;2.40;;
27804;SDS011;15183;51.350;11.102;2022-07-29T11:49:49;6.47;;;2.70;;
27804;SDS011;15183;51.350;11.102;2022-07-29T11:52:17;4.20;;;2.67;;
27804;SDS011;15183;51.350;11.102;2022-07-29T11:54:43;12.13;;;2.67;;
27804;SDS011;15183;51.350;11.102;2022-07-29T11:57:10;5.93;;;2.47;;
27804;SDS011;15183;51.350;11.102;2022-07-29T12:02:50;5.80;;;2.17;;
27804;SDS011;15183;51.350;11.102;2022-07-29T12:05:19;4.85;;;2.20;;
27804;SDS011;15183;51.350;11.102;2022-07-29T12:07:46;4.15;;;2.55;;
27804;SDS011;15183;51.350;11.102;2022-07-29T12:10:13;6.10;;;2.33;;
27804;SDS011;15183;51.350;11.102;2022-07-29T12:12:39;5.30;;;2.85;;
27804;SDS011;15183;51.350;11.102;2022-07-29T12:15:15;5.95;;;2.75;;
27804;SDS011;15183;51.350;11.102;2022-07-29T12:17:43;3.65;;;2.63;;
27804;SDS011;15183;51.350;11.102;2022-07-29T12:20:09;4.40;;;2.50;;
27804;SDS011;15183;51.350;11.102;2022-07-29T12:22:37;11.77;;;2.78;;
27804;SDS011;15183;51.350;11.102;2022-07-29T12:25:05;7.88;;;3.15;;
27804;SDS011;15183;51.350;11.102;2022-07-29T12:27:32;7.95;;;2.95;;
27804;SDS011;15183;51.350;11.102;2022-07-29T12:30:00;7.13;;;2.90;;
27804;SDS011;15183;51.350;11.102;2022-07-29T12:32:34;4.75;;;2.65;;
27804;SDS011;15183;51.350;11.102;2022-07-29T12:35:19;5.65;;;2.92;;
27804;SDS011;15183;51.350;11.102;2022-07-29T12:37:46;4.90;;;2.70;;
27804;SDS011;15183;51.350;11.102;2022-07-29T12:40:15;4.43;;;2.83;;
27804;SDS011;15183;51.350;11.102;2022-07-29T12:43:27;4.65;;;2.40;;
27804;SDS011;15183;51.350;11.102;2022-07-29T12:45:29;7.32;;;2.72;;
27804;SDS011;15183;51.350;11.102;2022-07-29T12:47:56;4.10;;;2.60;;
27804;SDS011;15183;51.350;11.102;2022-07-29T12:50:22;8.38;;;2.90;;
27804;SDS011;15183;51.350;11.102;2022-07-29T12:52:49;3.78;;;2.55;;
27804;SDS011;15183;51.350;11.102;2022-07-29T12:55:15;7.00;;;2.20;;
27804;SDS011;15183;51.350;11.102;2022-07-29T12:57:45;7.45;;;2.60;;
27804;SDS011;15183;51.350;11.102;2022-07-29T13:00:12;2.95;;;2.10;;
27804;SDS011;15183;51.350;11.102;2022-07-29T13:02:40;4.38;;;2.00;;
27804;SDS011;15183;51.350;11.102;2022-07-29T13:05:08;2.60;;;1.83;;
27804;SDS011;15183;51.350;11.102;2022-07-29T13:07:34;5.82;;;1.92;;
27804;SDS011;15183;51.350;11.102;2022-07-29T13:10:17;2.83;;;1.60;;
27804;SDS011;15183;51.350;11.102;2022-07-29T13:15:29;4.75;;;1.77;;
27804;SDS011;15183;51.350;11.102;2022-07-29T13:17:55;7.93;;;1.77;;
27804;SDS011;15183;51.350;11.102;2022-07-29T13:20:26;4.65;;;1.73;;
27804;SDS011;15183;51.350;11.102;2022-07-29T13:22:55;6.38;;;1.73;;
27804;SDS011;15183;51.350;11.102;2022-07-29T13:25:27;9.73;;;2.10;;
27804;SDS011;15183;51.350;11.102;2022-07-29T13:27:53;2.70;;;1.50;;
27804;SDS011;15183;51.350;11.102;2022-07-29T13:30:20;4.32;;;1.95;;
27804;SDS011;15183;51.350;11.102;2022-07-29T13:32:47;2.92;;;1.75;;
27804;SDS011;15183;51.350;11.102;2022-07-29T13:35:13;3.33;;;1.42;;
27804;SDS011;15183;51.350;11.102;2022-07-29T13:37:40;3.90;;;1.58;;
27804;SDS011;15183;51.350;11.102;2022-07-29T13:40:07;5.72;;;1.48;;
27804;SDS011;15183;51.350;11.102;2022-07-29T13:42:34;4.00;;;1.55;;
27804;SDS011;15183;51.350;11.102;2022-07-29T13:45:00;2.80;;;1.50;;
27804;SDS011;15183;51.350;11.102;2022-07-29T13:47:27;3.83;;;1.75;;
27804;SDS011;15183;51.350;11.102;2022-07-29T13:49:54;1.75;;;1.40;;
27804;SDS011;15183;51.350;11.102;2022-07-29T13:52:20;4.85;;;1.65;;
27804;SDS011;15183;51.350;11.102;2022-07-29T13:54:47;1.98;;;1.30;;
27804;SDS011;15183;51.350;11.102;2022-07-29T13:57:13;5.10;;;1.73;;
27804;SDS011;15183;51.350;11.102;2022-07-29T13:59:40;2.08;;;1.42;;
27804;SDS011;15183;51.350;11.102;2022-07-29T14:02:07;2.80;;;1.55;;
27804;SDS011;15183;51.350;11.102;2022-07-29T14:04:34;2.95;;;1.50;;
27804;SDS011;15183;51.350;11.102;2022-07-29T14:07:01;4.05;;;1.60;;
27804;SDS011;15183;51.350;11.102;2022-07-29T14:09:27;1.88;;;1.42;;
27804;SDS011;15183;51.350;11.102;2022-07-29T14:11:53;6.57;;;1.88;;
27804;SDS011;15183;51.350;11.102;2022-07-29T14:14:20;4.22;;;1.58;;
27804;SDS011;15183;51.350;11.102;2022-07-29T14:16:46;2.85;;;1.50;;
27804;SDS011;15183;51.350;11.102;2022-07-29T14:19:13;5.18;;;1.70;;
27804;SDS011;15183;51.350;11.102;2022-07-29T14:21:39;3.35;;;1.50;;
27804;SDS011;15183;51.350;11.102;2022-07-29T14:24:05;6.53;;;1.83;;
27804;SDS011;15183;51.350;11.102;2022-07-29T14:26:32;4.07;;;1.65;;
27804;SDS011;15183;51.350;11.102;2022-07-29T14:28:58;9.73;;;1.80;;
27804;SDS011;15183;51.350;11.102;2022-07-29T14:31:24;4.65;;;1.70;;
27804;SDS011;15183;51.350;11.102;2022-07-29T14:33:51;4.90;;;1.75;;
27804;SDS011;15183;51.350;11.102;2022-07-29T14:36:17;7.10;;;1.88;;
27804;SDS011;15183;51.350;11.102;2022-07-29T14:38:44;4.65;;;1.65;;
27804;SDS011;15183;51.350;11.102;2022-07-29T14:41:11;8.65;;;1.73;;
27804;SDS011;15183;51.350;11.102;2022-07-29T14:43:37;2.38;;;1.83;;
27804;SDS011;15183;51.350;11.102;2022-07-29T14:46:04;7.15;;;1.90;;
27804;SDS011;15183;51.350;11.102;2022-07-29T14:48:30;4.78;;;1.70;;
27804;SDS011;15183;51.350;11.102;2022-07-29T14:50:57;4.63;;;1.90;;
27804;SDS011;15183;51.350;11.102;2022-07-29T14:53:24;2.75;;;1.48;;
27804;SDS011;15183;51.350;11.102;2022-07-29T14:55:50;4.35;;;1.60;;
27804;SDS011;15183;51.350;11.102;2022-07-29T14:58:17;6.15;;;1.77;;
27804;SDS011;15183;51.350;11.102;2022-07-29T15:00:44;2.10;;;1.48;;
27804;SDS011;15183;51.350;11.102;2022-07-29T15:03:11;4.43;;;1.88;;
27804;SDS011;15183;51.350;11.102;2022-07-29T15:05:37;1.65;;;1.33;;
27804;SDS011;15183;51.350;11.102;2022-07-29T15:08:04;4.97;;;1.73;;
27804;SDS011;15183;51.350;11.102;2022-07-29T15:10:30;6.90;;;1.65;;
27804;SDS011;15183;51.350;11.102;2022-07-29T15:12:56;2.47;;;1.55;;
27804;SDS011;15183;51.350;11.102;2022-07-29T15:15:23;5.10;;;2.10;;
27804;SDS011;15183;51.350;11.102;2022-07-29T15:17:49;5.13;;;1.35;;
27804;SDS011;15183;51.350;11.102;2022-07-29T15:20:16;5.97;;;1.60;;
27804;SDS011;15183;51.350;11.102;2022-07-29T15:22:42;13.20;;;2.03;;
27804;SDS011;15183;51.350;11.102;2022-07-29T15:25:09;3.83;;;2.00;;
27804;SDS011;15183;51.350;11.102;2022-07-29T15:27:35;9.02;;;1.80;;